sensor_id;sensor_type;location;lat;lon;timestamp;P1;durP1;ratioP1;P2;durP2;ratioP2
59649;SDS011;46162;57.568;25.814;2023-08-06T00:02:05;7.13;;;4.95;;
59649;SDS011;46162;57.568;25.814;2023-08-06T00:04:34;7.13;;;5.15;;
59649;SDS011;46162;57.568;25.814;2023-08-06T00:07:03;7.30;;;5.28;;
59649;SDS011;46162;57.568;25.814;2023-08-06T00:09:34;5.45;;;4.70;;
59649;SDS011;46162;57.568;25.814;2023-08-06T00:12:04;8.18;;;5.03;;
59649;SDS011;46162;57.568;25.814;2023-08-06T00:14:33;7.63;;;5.18;;
59649;SDS011;46162;57.568;25.814;2023-08-06T00:17:01;6.32;;;5.05;;
59649;SDS011;46162;57.568;25.814;2023-08-06T00:19:31;8.68;;;4.88;;
59649;SDS011;46162;57.568;25.814;2023-08-06T00:22:00;8.88;;;5.00;;
59649;SDS011;46162;57.568;25.814;2023-08-06T00:24:30;7.50;;;4.82;;
59649;SDS011;46162;57.568;25.814;2023-08-06T00:27:00;5.30;;;4.05;;
59649;SDS011;46162;57.568;25.814;2023-08-06T00:29:29;10.00;;;4.43;;
59649;SDS011;46162;57.568;25.814;2023-08-06T00:31:58;8.70;;;4.60;;
59649;SDS011;46162;57.568;25.814;2023-08-06T00:34:26;10.10;;;4.50;;
59649;SDS011;46162;57.568;25.814;2023-08-06T00:36:55;7.63;;;4.35;;
59649;SDS011;46162;57.568;25.814;2023-08-06T00:39:24;9.32;;;4.38;;
59649;SDS011;46162;57.568;25.814;2023-08-06T00:41:52;7.40;;;4.30;;
59649;SDS011;46162;57.568;25.814;2023-08-06T00:44:23;5.93;;;3.88;;
59649;SDS011;46162;57.568;25.814;2023-08-06T00:46:51;11.50;;;4.40;;
59649;SDS011;46162;57.568;25.814;2023-08-06T00:49:20;7.53;;;4.03;;
59649;SDS011;46162;57.568;25.814;2023-08-06T00:51:50;6.50;;;3.80;;
59649;SDS011;46162;57.568;25.814;2023-08-06T00:54:19;6.68;;;4.70;;
59649;SDS011;46162;57.568;25.814;2023-08-06T00:56:48;5.50;;;4.20;;
59649;SDS011;46162;57.568;25.814;2023-08-06T00:59:17;6.13;;;4.18;;
59649;SDS011;46162;57.568;25.814;2023-08-06T01:01:49;5.28;;;4.40;;
59649;SDS011;46162;57.568;25.814;2023-08-06T01:04:19;7.20;;;5.20;;
59649;SDS011;46162;57.568;25.814;2023-08-06T01:06:48;4.68;;;4.05;;
59649;SDS011;46162;57.568;25.814;2023-08-06T01:09:33;6.90;;;4.55;;
59649;SDS011;46162;57.568;25.814;2023-08-06T01:12:13;7.60;;;4.38;;
59649;SDS011;46162;57.568;25.814;2023-08-06T01:14:53;4.88;;;4.22;;
59649;SDS011;46162;57.568;25.814;2023-08-06T01:17:31;5.03;;;3.83;;
59649;SDS011;46162;57.568;25.814;2023-08-06T01:20:00;8.57;;;4.32;;
59649;SDS011;46162;57.568;25.814;2023-08-06T01:22:32;7.87;;;5.13;;
59649;SDS011;46162;57.568;25.814;2023-08-06T01:25:00;8.30;;;4.50;;
59649;SDS011;46162;57.568;25.814;2023-08-06T01:27:30;6.65;;;3.97;;
59649;SDS011;46162;57.568;25.814;2023-08-06T01:30:06;6.32;;;4.68;;
59649;SDS011;46162;57.568;25.814;2023-08-06T01:32:42;10.10;;;4.35;;
59649;SDS011;46162;57.568;25.814;2023-08-06T01:35:15;7.72;;;4.93;;
59649;SDS011;46162;57.568;25.814;2023-08-06T01:37:47;7.30;;;4.50;;
59649;SDS011;46162;57.568;25.814;2023-08-06T01:40:16;7.85;;;4.30;;
59649;SDS011;46162;57.568;25.814;2023-08-06T01:42:45;5.55;;;3.85;;
59649;SDS011;46162;57.568;25.814;2023-08-06T01:45:14;7.82;;;4.35;;
59649;SDS011;46162;57.568;25.814;2023-08-06T01:47:42;5.03;;;4.32;;
59649;SDS011;46162;57.568;25.814;2023-08-06T01:50:11;9.00;;;4.93;;
59649;SDS011;46162;57.568;25.814;2023-08-06T01:52:40;7.50;;;4.82;;
59649;SDS011;46162;57.568;25.814;2023-08-06T01:55:10;6.75;;;5.65;;
59649;SDS011;46162;57.568;25.814;2023-08-06T01:57:38;9.85;;;5.53;;
59649;SDS011;46162;57.568;25.814;2023-08-06T02:00:07;11.50;;;5.45;;
59649;SDS011;46162;57.568;25.814;2023-08-06T02:02:39;6.72;;;5.80;;
59649;SDS011;46162;57.568;25.814;2023-08-06T02:05:09;11.88;;;6.32;;
59649;SDS011;46162;57.568;25.814;2023-08-06T02:07:39;11.63;;;6.50;;
59649;SDS011;46162;57.568;25.814;2023-08-06T02:10:08;11.85;;;6.13;;
59649;SDS011;46162;57.568;25.814;2023-08-06T02:12:38;9.07;;;6.80;;
59649;SDS011;46162;57.568;25.814;2023-08-06T02:15:06;9.32;;;6.47;;
59649;SDS011;46162;57.568;25.814;2023-08-06T02:17:35;9.32;;;7.43;;
59649;SDS011;46162;57.568;25.814;2023-08-06T02:20:05;9.18;;;6.97;;
59649;SDS011;46162;57.568;25.814;2023-08-06T02:22:34;8.50;;;6.87;;
59649;SDS011;46162;57.568;25.814;2023-08-06T02:25:03;11.07;;;6.80;;
59649;SDS011;46162;57.568;25.814;2023-08-06T02:27:33;8.85;;;6.50;;
59649;SDS011;46162;57.568;25.814;2023-08-06T02:30:02;10.68;;;6.55;;
59649;SDS011;46162;57.568;25.814;2023-08-06T02:32:32;8.32;;;6.65;;
59649;SDS011;46162;57.568;25.814;2023-08-06T02:35:02;9.07;;;6.60;;
59649;SDS011;46162;57.568;25.814;2023-08-06T02:37:33;14.45;;;7.32;;
59649;SDS011;46162;57.568;25.814;2023-08-06T02:40:02;8.33;;;6.47;;
59649;SDS011;46162;57.568;25.814;2023-08-06T02:42:31;11.02;;;7.20;;
59649;SDS011;46162;57.568;25.814;2023-08-06T02:45:01;12.93;;;6.63;;
59649;SDS011;46162;57.568;25.814;2023-08-06T02:47:30;7.72;;;6.63;;
59649;SDS011;46162;57.568;25.814;2023-08-06T02:49:58;6.30;;;5.57;;
59649;SDS011;46162;57.568;25.814;2023-08-06T02:52:29;6.82;;;5.80;;
59649;SDS011;46162;57.568;25.814;2023-08-06T02:54:57;7.43;;;6.28;;
59649;SDS011;46162;57.568;25.814;2023-08-06T02:57:29;7.95;;;5.55;;
59649;SDS011;46162;57.568;25.814;2023-08-06T02:59:58;6.00;;;5.40;;
59649;SDS011;46162;57.568;25.814;2023-08-06T03:02:28;5.80;;;5.25;;
59649;SDS011;46162;57.568;25.814;2023-08-06T03:05:20;8.52;;;5.40;;
59649;SDS011;46162;57.568;25.814;2023-08-06T03:07:49;7.10;;;5.07;;
59649;SDS011;46162;57.568;25.814;2023-08-06T03:10:22;6.45;;;5.28;;
59649;SDS011;46162;57.568;25.814;2023-08-06T03:12:53;6.78;;;5.00;;
59649;SDS011;46162;57.568;25.814;2023-08-06T03:15:22;8.50;;;5.57;;
59649;SDS011;46162;57.568;25.814;2023-08-06T03:17:56;6.73;;;5.27;;
59649;SDS011;46162;57.568;25.814;2023-08-06T03:20:25;9.48;;;5.68;;
59649;SDS011;46162;57.568;25.814;2023-08-06T03:22:54;8.45;;;4.68;;
59649;SDS011;46162;57.568;25.814;2023-08-06T03:25:23;7.07;;;4.82;;
59649;SDS011;46162;57.568;25.814;2023-08-06T03:27:52;7.90;;;5.47;;
59649;SDS011;46162;57.568;25.814;2023-08-06T03:30:21;8.07;;;5.72;;
59649;SDS011;46162;57.568;25.814;2023-08-06T03:32:52;6.03;;;4.75;;
59649;SDS011;46162;57.568;25.814;2023-08-06T03:35:22;8.30;;;5.65;;
59649;SDS011;46162;57.568;25.814;2023-08-06T03:37:52;6.28;;;5.57;;
59649;SDS011;46162;57.568;25.814;2023-08-06T03:40:21;10.43;;;5.28;;
59649;SDS011;46162;57.568;25.814;2023-08-06T03:42:50;7.85;;;5.20;;
59649;SDS011;46162;57.568;25.814;2023-08-06T03:45:18;7.05;;;5.15;;
59649;SDS011;46162;57.568;25.814;2023-08-06T03:47:48;8.90;;;5.20;;
59649;SDS011;46162;57.568;25.814;2023-08-06T03:50:17;9.27;;;6.05;;
59649;SDS011;46162;57.568;25.814;2023-08-06T03:52:47;8.15;;;5.60;;
59649;SDS011;46162;57.568;25.814;2023-08-06T03:55:16;7.20;;;6.05;;
59649;SDS011;46162;57.568;25.814;2023-08-06T03:57:45;6.72;;;4.90;;
59649;SDS011;46162;57.568;25.814;2023-08-06T04:00:14;8.98;;;5.38;;
59649;SDS011;46162;57.568;25.814;2023-08-06T04:02:49;10.90;;;5.75;;
59649;SDS011;46162;57.568;25.814;2023-08-06T04:05:18;7.00;;;6.10;;
59649;SDS011;46162;57.568;25.814;2023-08-06T04:07:48;7.18;;;6.25;;
59649;SDS011;46162;57.568;25.814;2023-08-06T04:10:17;9.32;;;6.18;;
59649;SDS011;46162;57.568;25.814;2023-08-06T04:12:46;9.38;;;6.30;;
59649;SDS011;46162;57.568;25.814;2023-08-06T04:15:15;8.52;;;5.95;;
59649;SDS011;46162;57.568;25.814;2023-08-06T04:17:44;11.57;;;6.68;;
59649;SDS011;46162;57.568;25.814;2023-08-06T04:20:13;10.43;;;6.88;;
59649;SDS011;46162;57.568;25.814;2023-08-06T04:22:42;6.60;;;5.70;;
59649;SDS011;46162;57.568;25.814;2023-08-06T04:25:13;9.77;;;6.95;;
59649;SDS011;46162;57.568;25.814;2023-08-06T04:27:43;7.00;;;5.63;;
59649;SDS011;46162;57.568;25.814;2023-08-06T04:30:11;6.38;;;5.10;;
59649;SDS011;46162;57.568;25.814;2023-08-06T04:32:41;8.45;;;6.20;;
59649;SDS011;46162;57.568;25.814;2023-08-06T04:35:10;6.60;;;5.88;;
59649;SDS011;46162;57.568;25.814;2023-08-06T04:37:39;11.18;;;6.28;;
59649;SDS011;46162;57.568;25.814;2023-08-06T04:40:10;7.47;;;6.78;;
59649;SDS011;46162;57.568;25.814;2023-08-06T04:42:41;8.18;;;6.55;;
59649;SDS011;46162;57.568;25.814;2023-08-06T04:45:10;13.20;;;6.90;;
59649;SDS011;46162;57.568;25.814;2023-08-06T04:47:39;10.70;;;6.78;;
59649;SDS011;46162;57.568;25.814;2023-08-06T04:50:08;8.15;;;6.75;;
59649;SDS011;46162;57.568;25.814;2023-08-06T04:52:37;9.63;;;6.05;;
59649;SDS011;46162;57.568;25.814;2023-08-06T04:55:06;8.45;;;6.30;;
59649;SDS011;46162;57.568;25.814;2023-08-06T04:57:35;8.35;;;6.78;;
59649;SDS011;46162;57.568;25.814;2023-08-06T05:00:05;8.32;;;6.55;;
59649;SDS011;46162;57.568;25.814;2023-08-06T05:02:35;8.32;;;5.35;;
59649;SDS011;46162;57.568;25.814;2023-08-06T05:05:05;10.10;;;6.00;;
59649;SDS011;46162;57.568;25.814;2023-08-06T05:07:35;8.50;;;6.40;;
59649;SDS011;46162;57.568;25.814;2023-08-06T05:10:03;11.23;;;6.43;;
59649;SDS011;46162;57.568;25.814;2023-08-06T05:12:33;9.73;;;7.15;;
59649;SDS011;46162;57.568;25.814;2023-08-06T05:15:02;7.93;;;6.55;;
59649;SDS011;46162;57.568;25.814;2023-08-06T05:17:32;9.05;;;7.07;;
59649;SDS011;46162;57.568;25.814;2023-08-06T05:20:01;9.40;;;6.95;;
59649;SDS011;46162;57.568;25.814;2023-08-06T05:22:30;9.50;;;6.95;;
59649;SDS011;46162;57.568;25.814;2023-08-06T05:24:59;8.30;;;7.03;;
59649;SDS011;46162;57.568;25.814;2023-08-06T05:27:27;9.98;;;7.75;;
59649;SDS011;46162;57.568;25.814;2023-08-06T05:29:56;10.55;;;7.20;;
59649;SDS011;46162;57.568;25.814;2023-08-06T05:32:25;10.82;;;7.40;;
59649;SDS011;46162;57.568;25.814;2023-08-06T05:34:55;9.52;;;7.97;;
59649;SDS011;46162;57.568;25.814;2023-08-06T05:37:24;9.93;;;7.72;;
59649;SDS011;46162;57.568;25.814;2023-08-06T05:39:52;9.55;;;7.18;;
59649;SDS011;46162;57.568;25.814;2023-08-06T05:42:21;12.95;;;7.85;;
59649;SDS011;46162;57.568;25.814;2023-08-06T05:44:49;10.70;;;7.30;;
59649;SDS011;46162;57.568;25.814;2023-08-06T05:47:18;7.90;;;7.05;;
59649;SDS011;46162;57.568;25.814;2023-08-06T05:49:47;12.02;;;7.05;;
59649;SDS011;46162;57.568;25.814;2023-08-06T05:52:17;7.90;;;7.10;;
59649;SDS011;46162;57.568;25.814;2023-08-06T05:54:46;8.05;;;7.07;;
59649;SDS011;46162;57.568;25.814;2023-08-06T05:57:15;9.38;;;6.03;;
59649;SDS011;46162;57.568;25.814;2023-08-06T05:59:47;11.32;;;6.72;;
59649;SDS011;46162;57.568;25.814;2023-08-06T06:02:15;7.43;;;6.05;;
59649;SDS011;46162;57.568;25.814;2023-08-06T06:04:45;8.20;;;6.47;;
59649;SDS011;46162;57.568;25.814;2023-08-06T06:07:14;7.00;;;6.30;;
59649;SDS011;46162;57.568;25.814;2023-08-06T06:09:44;8.45;;;6.47;;
59649;SDS011;46162;57.568;25.814;2023-08-06T06:12:13;12.15;;;6.97;;
59649;SDS011;46162;57.568;25.814;2023-08-06T06:14:42;8.80;;;6.05;;
59649;SDS011;46162;57.568;25.814;2023-08-06T06:17:11;6.13;;;5.43;;
59649;SDS011;46162;57.568;25.814;2023-08-06T06:19:40;7.00;;;6.20;;
59649;SDS011;46162;57.568;25.814;2023-08-06T06:22:08;6.28;;;5.60;;
59649;SDS011;46162;57.568;25.814;2023-08-06T06:24:37;6.57;;;5.50;;
59649;SDS011;46162;57.568;25.814;2023-08-06T06:27:08;7.03;;;5.85;;
59649;SDS011;46162;57.568;25.814;2023-08-06T06:29:37;9.27;;;6.20;;
59649;SDS011;46162;57.568;25.814;2023-08-06T06:32:06;8.52;;;5.78;;
59649;SDS011;46162;57.568;25.814;2023-08-06T06:34:35;8.57;;;6.00;;
59649;SDS011;46162;57.568;25.814;2023-08-06T06:37:03;7.28;;;6.18;;
59649;SDS011;46162;57.568;25.814;2023-08-06T06:39:33;10.35;;;6.90;;
59649;SDS011;46162;57.568;25.814;2023-08-06T06:42:02;7.63;;;5.70;;
59649;SDS011;46162;57.568;25.814;2023-08-06T06:44:39;12.30;;;6.75;;
59649;SDS011;46162;57.568;25.814;2023-08-06T06:47:10;12.30;;;6.25;;
59649;SDS011;46162;57.568;25.814;2023-08-06T06:49:39;9.20;;;5.78;;
59649;SDS011;46162;57.568;25.814;2023-08-06T06:52:08;10.65;;;6.15;;
59649;SDS011;46162;57.568;25.814;2023-08-06T06:54:39;8.65;;;6.10;;
59649;SDS011;46162;57.568;25.814;2023-08-06T06:57:08;7.55;;;5.90;;
59649;SDS011;46162;57.568;25.814;2023-08-06T06:59:39;12.82;;;7.25;;
59649;SDS011;46162;57.568;25.814;2023-08-06T07:02:11;10.95;;;7.57;;
59649;SDS011;46162;57.568;25.814;2023-08-06T07:04:40;9.30;;;7.32;;
59649;SDS011;46162;57.568;25.814;2023-08-06T07:07:09;11.02;;;7.22;;
59649;SDS011;46162;57.568;25.814;2023-08-06T07:09:40;11.52;;;7.07;;
59649;SDS011;46162;57.568;25.814;2023-08-06T07:12:09;11.57;;;7.40;;
59649;SDS011;46162;57.568;25.814;2023-08-06T07:14:41;13.47;;;8.03;;
59649;SDS011;46162;57.568;25.814;2023-08-06T07:17:11;10.18;;;7.45;;
59649;SDS011;46162;57.568;25.814;2023-08-06T07:19:39;10.00;;;6.30;;
59649;SDS011;46162;57.568;25.814;2023-08-06T07:22:08;10.43;;;7.35;;
59649;SDS011;46162;57.568;25.814;2023-08-06T07:24:36;9.32;;;6.78;;
59649;SDS011;46162;57.568;25.814;2023-08-06T07:27:05;10.00;;;6.18;;
59649;SDS011;46162;57.568;25.814;2023-08-06T07:29:34;11.10;;;6.45;;
59649;SDS011;46162;57.568;25.814;2023-08-06T07:32:05;8.63;;;5.45;;
59649;SDS011;46162;57.568;25.814;2023-08-06T07:34:35;7.75;;;5.07;;
59649;SDS011;46162;57.568;25.814;2023-08-06T07:37:04;6.82;;;5.45;;
59649;SDS011;46162;57.568;25.814;2023-08-06T07:39:33;11.18;;;5.88;;
59649;SDS011;46162;57.568;25.814;2023-08-06T07:42:01;7.00;;;5.82;;
59649;SDS011;46162;57.568;25.814;2023-08-06T07:47:01;9.75;;;5.60;;
59649;SDS011;46162;57.568;25.814;2023-08-06T07:49:31;8.68;;;6.00;;
59649;SDS011;46162;57.568;25.814;2023-08-06T07:51:59;9.23;;;6.63;;
59649;SDS011;46162;57.568;25.814;2023-08-06T07:54:28;8.95;;;6.43;;
59649;SDS011;46162;57.568;25.814;2023-08-06T07:56:59;8.57;;;6.03;;
59649;SDS011;46162;57.568;25.814;2023-08-06T07:59:28;7.97;;;6.80;;
59649;SDS011;46162;57.568;25.814;2023-08-06T08:01:57;9.70;;;7.00;;
59649;SDS011;46162;57.568;25.814;2023-08-06T08:04:26;9.38;;;7.43;;
59649;SDS011;46162;57.568;25.814;2023-08-06T08:06:56;10.50;;;7.22;;
59649;SDS011;46162;57.568;25.814;2023-08-06T08:09:24;7.53;;;5.65;;
59649;SDS011;46162;57.568;25.814;2023-08-06T08:11:53;8.52;;;6.10;;
59649;SDS011;46162;57.568;25.814;2023-08-06T08:14:26;9.93;;;7.05;;
59649;SDS011;46162;57.568;25.814;2023-08-06T08:16:55;8.15;;;6.65;;
59649;SDS011;46162;57.568;25.814;2023-08-06T08:19:24;7.75;;;6.25;;
59649;SDS011;46162;57.568;25.814;2023-08-06T08:21:53;7.97;;;5.75;;
59649;SDS011;46162;57.568;25.814;2023-08-06T08:24:23;7.80;;;5.72;;
59649;SDS011;46162;57.568;25.814;2023-08-06T08:26:52;8.13;;;5.40;;
59649;SDS011;46162;57.568;25.814;2023-08-06T08:29:21;6.30;;;5.50;;
59649;SDS011;46162;57.568;25.814;2023-08-06T08:31:51;9.70;;;6.20;;
59649;SDS011;46162;57.568;25.814;2023-08-06T08:34:20;9.95;;;6.28;;
59649;SDS011;46162;57.568;25.814;2023-08-06T08:36:49;9.20;;;5.80;;
59649;SDS011;46162;57.568;25.814;2023-08-06T08:39:17;7.55;;;5.70;;
59649;SDS011;46162;57.568;25.814;2023-08-06T08:41:48;11.13;;;5.63;;
59649;SDS011;46162;57.568;25.814;2023-08-06T08:44:16;6.53;;;5.88;;
59649;SDS011;46162;57.568;25.814;2023-08-06T08:46:45;6.72;;;5.97;;
59649;SDS011;46162;57.568;25.814;2023-08-06T08:49:16;8.18;;;6.18;;
59649;SDS011;46162;57.568;25.814;2023-08-06T08:51:46;12.13;;;6.68;;
59649;SDS011;46162;57.568;25.814;2023-08-06T08:54:16;8.93;;;6.72;;
59649;SDS011;46162;57.568;25.814;2023-08-06T08:56:45;10.65;;;6.18;;
59649;SDS011;46162;57.568;25.814;2023-08-06T08:59:17;7.20;;;6.00;;
59649;SDS011;46162;57.568;25.814;2023-08-06T09:01:46;8.18;;;6.40;;
59649;SDS011;46162;57.568;25.814;2023-08-06T09:04:19;11.18;;;6.55;;
59649;SDS011;46162;57.568;25.814;2023-08-06T09:09:25;19.65;;;7.85;;
59649;SDS011;46162;57.568;25.814;2023-08-06T09:12:00;8.20;;;6.65;;
59649;SDS011;46162;57.568;25.814;2023-08-06T09:14:30;10.20;;;7.22;;
59649;SDS011;46162;57.568;25.814;2023-08-06T09:16:58;8.30;;;5.75;;
59649;SDS011;46162;57.568;25.814;2023-08-06T09:19:28;8.48;;;5.82;;
59649;SDS011;46162;57.568;25.814;2023-08-06T09:21:57;9.60;;;5.90;;
59649;SDS011;46162;57.568;25.814;2023-08-06T09:24:25;13.55;;;6.28;;
59649;SDS011;46162;57.568;25.814;2023-08-06T09:26:54;13.88;;;7.00;;
59649;SDS011;46162;57.568;25.814;2023-08-06T09:31:59;7.28;;;6.07;;
59649;SDS011;46162;57.568;25.814;2023-08-06T09:34:27;8.35;;;6.00;;
59649;SDS011;46162;57.568;25.814;2023-08-06T09:36:56;7.50;;;5.75;;
59649;SDS011;46162;57.568;25.814;2023-08-06T09:39:26;8.32;;;5.65;;
59649;SDS011;46162;57.568;25.814;2023-08-06T09:41:56;8.18;;;6.28;;
59649;SDS011;46162;57.568;25.814;2023-08-06T09:44:27;8.80;;;5.70;;
59649;SDS011;46162;57.568;25.814;2023-08-06T09:46:57;6.78;;;5.72;;
59649;SDS011;46162;57.568;25.814;2023-08-06T09:49:27;8.00;;;6.20;;
59649;SDS011;46162;57.568;25.814;2023-08-06T09:51:56;10.57;;;6.00;;
59649;SDS011;46162;57.568;25.814;2023-08-06T09:54:27;9.32;;;6.05;;
59649;SDS011;46162;57.568;25.814;2023-08-06T09:56:57;9.13;;;6.15;;
59649;SDS011;46162;57.568;25.814;2023-08-06T09:59:27;8.63;;;6.72;;
59649;SDS011;46162;57.568;25.814;2023-08-06T10:01:56;9.18;;;6.07;;
59649;SDS011;46162;57.568;25.814;2023-08-06T10:04:26;7.28;;;5.63;;
59649;SDS011;46162;57.568;25.814;2023-08-06T10:07:06;12.52;;;6.55;;
59649;SDS011;46162;57.568;25.814;2023-08-06T10:09:35;10.30;;;6.07;;
59649;SDS011;46162;57.568;25.814;2023-08-06T10:12:04;10.75;;;7.00;;
59649;SDS011;46162;57.568;25.814;2023-08-06T10:14:35;6.70;;;5.77;;
59649;SDS011;46162;57.568;25.814;2023-08-06T10:17:06;8.68;;;5.53;;
59649;SDS011;46162;57.568;25.814;2023-08-06T10:19:36;7.80;;;5.53;;
59649;SDS011;46162;57.568;25.814;2023-08-06T10:22:08;14.88;;;6.20;;
59649;SDS011;46162;57.568;25.814;2023-08-06T10:24:50;7.95;;;5.95;;
59649;SDS011;46162;57.568;25.814;2023-08-06T10:27:20;8.35;;;5.88;;
59649;SDS011;46162;57.568;25.814;2023-08-06T10:29:52;7.85;;;6.00;;
59649;SDS011;46162;57.568;25.814;2023-08-06T10:35:34;7.15;;;6.22;;
59649;SDS011;46162;57.568;25.814;2023-08-06T10:38:04;11.35;;;6.18;;
59649;SDS011;46162;57.568;25.814;2023-08-06T10:40:35;8.65;;;6.10;;
59649;SDS011;46162;57.568;25.814;2023-08-06T10:43:05;11.00;;;6.20;;
59649;SDS011;46162;57.568;25.814;2023-08-06T10:45:37;9.55;;;6.50;;
59649;SDS011;46162;57.568;25.814;2023-08-06T10:48:06;11.18;;;6.80;;
59649;SDS011;46162;57.568;25.814;2023-08-06T10:50:35;9.48;;;6.53;;
59649;SDS011;46162;57.568;25.814;2023-08-06T10:53:04;11.20;;;6.32;;
59649;SDS011;46162;57.568;25.814;2023-08-06T10:55:35;9.23;;;6.88;;
59649;SDS011;46162;57.568;25.814;2023-08-06T10:58:05;7.93;;;6.07;;
59649;SDS011;46162;57.568;25.814;2023-08-06T11:00:33;8.63;;;6.55;;
59649;SDS011;46162;57.568;25.814;2023-08-06T11:03:04;7.75;;;6.43;;
59649;SDS011;46162;57.568;25.814;2023-08-06T11:05:33;8.63;;;7.00;;
59649;SDS011;46162;57.568;25.814;2023-08-06T11:08:03;8.35;;;6.97;;
59649;SDS011;46162;57.568;25.814;2023-08-06T11:10:32;10.02;;;6.93;;
59649;SDS011;46162;57.568;25.814;2023-08-06T11:13:02;13.88;;;7.05;;
59649;SDS011;46162;57.568;25.814;2023-08-06T11:15:31;12.85;;;6.72;;
59649;SDS011;46162;57.568;25.814;2023-08-06T11:18:00;12.15;;;7.55;;
59649;SDS011;46162;57.568;25.814;2023-08-06T11:20:31;11.30;;;7.45;;
59649;SDS011;46162;57.568;25.814;2023-08-06T11:23:01;10.38;;;7.40;;
59649;SDS011;46162;57.568;25.814;2023-08-06T11:25:30;9.18;;;7.10;;
59649;SDS011;46162;57.568;25.814;2023-08-06T11:28:00;10.32;;;7.28;;
59649;SDS011;46162;57.568;25.814;2023-08-06T11:30:29;10.43;;;6.93;;
59649;SDS011;46162;57.568;25.814;2023-08-06T11:32:58;9.80;;;7.35;;
59649;SDS011;46162;57.568;25.814;2023-08-06T11:35:26;11.75;;;7.22;;
59649;SDS011;46162;57.568;25.814;2023-08-06T11:37:56;8.43;;;6.75;;
59649;SDS011;46162;57.568;25.814;2023-08-06T11:40:25;10.43;;;6.90;;
59649;SDS011;46162;57.568;25.814;2023-08-06T11:42:54;12.38;;;7.65;;
59649;SDS011;46162;57.568;25.814;2023-08-06T11:45:22;9.07;;;6.95;;
59649;SDS011;46162;57.568;25.814;2023-08-06T11:47:52;10.90;;;6.67;;
59649;SDS011;46162;57.568;25.814;2023-08-06T11:50:22;11.05;;;6.40;;
59649;SDS011;46162;57.568;25.814;2023-08-06T11:52:55;10.20;;;6.70;;
59649;SDS011;46162;57.568;25.814;2023-08-06T11:55:27;11.57;;;6.97;;
59649;SDS011;46162;57.568;25.814;2023-08-06T11:57:56;10.40;;;7.45;;
59649;SDS011;46162;57.568;25.814;2023-08-06T12:00:26;7.87;;;7.13;;
59649;SDS011;46162;57.568;25.814;2023-08-06T12:02:54;11.88;;;6.60;;
59649;SDS011;46162;57.568;25.814;2023-08-06T12:05:28;13.00;;;7.00;;
59649;SDS011;46162;57.568;25.814;2023-08-06T12:08:02;9.80;;;6.80;;
59649;SDS011;46162;57.568;25.814;2023-08-06T12:10:31;38.63;;;8.20;;
59649;SDS011;46162;57.568;25.814;2023-08-06T12:13:00;9.65;;;6.35;;
59649;SDS011;46162;57.568;25.814;2023-08-06T12:15:29;15.40;;;7.70;;
59649;SDS011;46162;57.568;25.814;2023-08-06T12:17:59;24.83;;;7.70;;
59649;SDS011;46162;57.568;25.814;2023-08-06T12:20:28;9.77;;;6.55;;
59649;SDS011;46162;57.568;25.814;2023-08-06T12:22:57;9.57;;;7.25;;
59649;SDS011;46162;57.568;25.814;2023-08-06T12:25:27;8.15;;;7.05;;
59649;SDS011;46162;57.568;25.814;2023-08-06T12:27:56;7.78;;;6.55;;
59649;SDS011;46162;57.568;25.814;2023-08-06T12:30:24;8.20;;;6.30;;
59649;SDS011;46162;57.568;25.814;2023-08-06T12:32:53;8.85;;;7.15;;
59649;SDS011;46162;57.568;25.814;2023-08-06T12:35:22;9.45;;;6.95;;
59649;SDS011;46162;57.568;25.814;2023-08-06T12:37:52;9.70;;;6.32;;
59649;SDS011;46162;57.568;25.814;2023-08-06T12:40:21;7.75;;;6.22;;
59649;SDS011;46162;57.568;25.814;2023-08-06T12:43:04;10.43;;;6.38;;
59649;SDS011;46162;57.568;25.814;2023-08-06T12:48:02;9.13;;;7.35;;
59649;SDS011;46162;57.568;25.814;2023-08-06T12:50:31;10.10;;;7.30;;
59649;SDS011;46162;57.568;25.814;2023-08-06T12:53:01;13.63;;;6.65;;
59649;SDS011;46162;57.568;25.814;2023-08-06T12:55:31;8.05;;;6.25;;
59649;SDS011;46162;57.568;25.814;2023-08-06T12:58:00;10.88;;;6.53;;
59649;SDS011;46162;57.568;25.814;2023-08-06T13:00:30;7.97;;;6.68;;
59649;SDS011;46162;57.568;25.814;2023-08-06T13:02:59;7.28;;;6.40;;
59649;SDS011;46162;57.568;25.814;2023-08-06T13:05:28;7.57;;;6.50;;
59649;SDS011;46162;57.568;25.814;2023-08-06T13:07:57;10.13;;;6.28;;
59649;SDS011;46162;57.568;25.814;2023-08-06T13:10:25;7.40;;;6.70;;
59649;SDS011;46162;57.568;25.814;2023-08-06T13:15:24;8.63;;;6.95;;
59649;SDS011;46162;57.568;25.814;2023-08-06T13:17:54;14.27;;;7.90;;
59649;SDS011;46162;57.568;25.814;2023-08-06T13:20:23;9.90;;;6.68;;
59649;SDS011;46162;57.568;25.814;2023-08-06T13:22:52;11.77;;;6.70;;
59649;SDS011;46162;57.568;25.814;2023-08-06T13:25:20;8.80;;;6.07;;
59649;SDS011;46162;57.568;25.814;2023-08-06T13:27:50;10.07;;;6.30;;
59649;SDS011;46162;57.568;25.814;2023-08-06T13:30:18;11.02;;;6.55;;
59649;SDS011;46162;57.568;25.814;2023-08-06T13:32:47;10.55;;;5.65;;
59649;SDS011;46162;57.568;25.814;2023-08-06T13:35:17;8.13;;;5.93;;
59649;SDS011;46162;57.568;25.814;2023-08-06T13:40:15;10.00;;;6.10;;
59649;SDS011;46162;57.568;25.814;2023-08-06T13:42:43;9.25;;;5.97;;
59649;SDS011;46162;57.568;25.814;2023-08-06T13:45:12;10.23;;;5.95;;
59649;SDS011;46162;57.568;25.814;2023-08-06T13:47:41;6.05;;;5.45;;
59649;SDS011;46162;57.568;25.814;2023-08-06T13:50:09;6.60;;;5.32;;
59649;SDS011;46162;57.568;25.814;2023-08-06T13:52:50;9.95;;;6.15;;
59649;SDS011;46162;57.568;25.814;2023-08-06T13:55:20;8.02;;;5.68;;
59649;SDS011;46162;57.568;25.814;2023-08-06T13:57:48;8.77;;;5.40;;
59649;SDS011;46162;57.568;25.814;2023-08-06T14:00:18;8.60;;;4.93;;
59649;SDS011;46162;57.568;25.814;2023-08-06T14:02:46;11.55;;;5.28;;
59649;SDS011;46162;57.568;25.814;2023-08-06T14:05:15;10.65;;;5.00;;
59649;SDS011;46162;57.568;25.814;2023-08-06T14:07:44;12.90;;;5.47;;
59649;SDS011;46162;57.568;25.814;2023-08-06T14:10:14;10.02;;;5.80;;
59649;SDS011;46162;57.568;25.814;2023-08-06T14:12:43;8.13;;;5.90;;
59649;SDS011;46162;57.568;25.814;2023-08-06T14:15:23;7.43;;;5.68;;
59649;SDS011;46162;57.568;25.814;2023-08-06T14:17:52;6.68;;;6.00;;
59649;SDS011;46162;57.568;25.814;2023-08-06T14:20:20;7.63;;;5.47;;
59649;SDS011;46162;57.568;25.814;2023-08-06T14:22:50;8.75;;;5.78;;
59649;SDS011;46162;57.568;25.814;2023-08-06T14:25:20;8.82;;;5.50;;
59649;SDS011;46162;57.568;25.814;2023-08-06T14:30:17;6.45;;;5.80;;
59649;SDS011;46162;57.568;25.814;2023-08-06T14:32:46;10.32;;;5.43;;
59649;SDS011;46162;57.568;25.814;2023-08-06T14:35:15;6.78;;;5.90;;
59649;SDS011;46162;57.568;25.814;2023-08-06T14:37:44;9.63;;;5.93;;
59649;SDS011;46162;57.568;25.814;2023-08-06T14:40:13;8.88;;;6.07;;
59649;SDS011;46162;57.568;25.814;2023-08-06T14:42:43;7.88;;;5.72;;
59649;SDS011;46162;57.568;25.814;2023-08-06T14:45:11;10.70;;;6.53;;
59649;SDS011;46162;57.568;25.814;2023-08-06T14:47:40;11.52;;;6.45;;
59649;SDS011;46162;57.568;25.814;2023-08-06T14:50:09;7.93;;;5.82;;
59649;SDS011;46162;57.568;25.814;2023-08-06T14:52:37;9.68;;;6.55;;
59649;SDS011;46162;57.568;25.814;2023-08-06T14:55:06;9.25;;;6.88;;
59649;SDS011;46162;57.568;25.814;2023-08-06T14:57:36;8.57;;;6.53;;
59649;SDS011;46162;57.568;25.814;2023-08-06T15:00:07;11.32;;;6.57;;
59649;SDS011;46162;57.568;25.814;2023-08-06T15:02:37;14.23;;;6.45;;
59649;SDS011;46162;57.568;25.814;2023-08-06T15:05:06;6.47;;;5.70;;
59649;SDS011;46162;57.568;25.814;2023-08-06T15:07:35;7.68;;;6.15;;